sensor_id;sensor_type;location;lat;lon;timestamp;temperature;humidity
15535;DHT22;7869;49.264;8.596;2023-02-11T00:00:41;-1.50;99.90
15535;DHT22;7869;49.264;8.596;2023-02-11T00:03:07;-1.50;99.90
15535;DHT22;7869;49.264;8.596;2023-02-11T00:05:32;-1.50;99.90
15535;DHT22;7869;49.264;8.596;2023-02-11T00:07:58;-1.40;99.90
15535;DHT22;7869;49.264;8.596;2023-02-11T00:10:23;-1.40;99.90
15535;DHT22;7869;49.264;8.596;2023-02-11T00:12:49;-1.30;99.90
15535;DHT22;7869;49.264;8.596;2023-02-11T00:15:14;-1.30;99.90
15535;DHT22;7869;49.264;8.596;2023-02-11T00:17:40;-1.20;99.90
15535;DHT22;7869;49.264;8.596;2023-02-11T00:20:05;-1.20;99.90
15535;DHT22;7869;49.264;8.596;2023-02-11T00:22:31;-1.10;99.90
15535;DHT22;7869;49.264;8.596;2023-02-11T00:24:56;-0.90;99.90
15535;DHT22;7869;49.264;8.596;2023-02-11T00:27:22;-0.80;99.90
15535;DHT22;7869;49.264;8.596;2023-02-11T00:29:47;-0.60;99.90
15535;DHT22;7869;49.264;8.596;2023-02-11T00:32:13;-0.50;99.90
15535;DHT22;7869;49.264;8.596;2023-02-11T00:34:38;-0.40;99.90
15535;DHT22;7869;49.264;8.596;2023-02-11T00:37:04;-0.30;99.90
15535;DHT22;7869;49.264;8.596;2023-02-11T00:39:29;-0.30;99.90
15535;DHT22;7869;49.264;8.596;2023-02-11T00:41:55;-0.20;99.90
15535;DHT22;7869;49.264;8.596;2023-02-11T00:44:21;-0.10;99.90
15535;DHT22;7869;49.264;8.596;2023-02-11T00:46:46;-0.10;99.90
15535;DHT22;7869;49.264;8.596;2023-02-11T00:49:12;0.00;99.90
15535;DHT22;7869;49.264;8.596;2023-02-11T00:51:38;0.10;99.90
15535;DHT22;7869;49.264;8.596;2023-02-11T00:54:03;0.10;99.90
15535;DHT22;7869;49.264;8.596;2023-02-11T00:56:29;0.20;99.90
15535;DHT22;7869;49.264;8.596;2023-02-11T00:58:54;0.30;99.90
15535;DHT22;7869;49.264;8.596;2023-02-11T01:01:20;0.30;99.90
15535;DHT22;7869;49.264;8.596;2023-02-11T01:03:45;0.60;99.90
15535;DHT22;7869;49.264;8.596;2023-02-11T01:06:11;0.50;99.90
15535;DHT22;7869;49.264;8.596;2023-02-11T01:08:37;0.50;99.90
15535;DHT22;7869;49.264;8.596;2023-02-11T01:11:04;0.60;99.90
15535;DHT22;7869;49.264;8.596;2023-02-11T01:13:31;0.60;99.90
15535;DHT22;7869;49.264;8.596;2023-02-11T01:15:57;0.60;99.90
15535;DHT22;7869;49.264;8.596;2023-02-11T01:18:22;0.60;99.90
15535;DHT22;7869;49.264;8.596;2023-02-11T01:20:49;0.60;99.90
15535;DHT22;7869;49.264;8.596;2023-02-11T01:23:14;0.60;99.90
15535;DHT22;7869;49.264;8.596;2023-02-11T01:25:40;0.60;99.90
15535;DHT22;7869;49.264;8.596;2023-02-11T01:28:05;0.60;99.90
15535;DHT22;7869;49.264;8.596;2023-02-11T01:30:31;0.60;99.90
15535;DHT22;7869;49.264;8.596;2023-02-11T01:32:56;0.60;99.90
15535;DHT22;7869;49.264;8.596;2023-02-11T01:35:22;0.60;99.90
15535;DHT22;7869;49.264;8.596;2023-02-11T01:37:47;0.60;99.90
15535;DHT22;7869;49.264;8.596;2023-02-11T01:40:14;0.60;99.90
15535;DHT22;7869;49.264;8.596;2023-02-11T01:42:39;0.60;99.90
15535;DHT22;7869;49.264;8.596;2023-02-11T01:47:49;0.50;99.90
15535;DHT22;7869;49.264;8.596;2023-02-11T01:50:14;0.50;99.90
15535;DHT22;7869;49.264;8.596;2023-02-11T01:52:40;0.50;99.90
15535;DHT22;7869;49.264;8.596;2023-02-11T01:55:10;0.50;99.90
15535;DHT22;7869;49.264;8.596;2023-02-11T01:57:56;0.50;99.90
15535;DHT22;7869;49.264;8.596;2023-02-11T02:00:24;0.60;99.90
15535;DHT22;7869;49.264;8.596;2023-02-11T02:07:57;0.50;99.90
15535;DHT22;7869;49.264;8.596;2023-02-11T02:10:23;0.60;99.90
15535;DHT22;7869;49.264;8.596;2023-02-11T02:12:49;0.60;99.90
15535;DHT22;7869;49.264;8.596;2023-02-11T02:15:19;0.60;99.90
15535;DHT22;7869;49.264;8.596;2023-02-11T02:17:51;0.50;99.90
15535;DHT22;7869;49.264;8.596;2023-02-11T02:20:46;0.50;99.90
15535;DHT22;7869;49.264;8.596;2023-02-11T02:36:29;0.60;99.90
15535;DHT22;7869;49.264;8.596;2023-02-11T02:39:12;0.60;99.90
15535;DHT22;7869;49.264;8.596;2023-02-11T02:41:39;0.60;99.90
15535;DHT22;7869;49.264;8.596;2023-02-11T02:44:06;0.60;99.90
15535;DHT22;7869;49.264;8.596;2023-02-11T02:46:32;0.60;99.90
15535;DHT22;7869;49.264;8.596;2023-02-11T02:48:58;0.60;99.90
15535;DHT22;7869;49.264;8.596;2023-02-11T02:51:26;0.60;99.90
15535;DHT22;7869;49.264;8.596;2023-02-11T02:56:38;0.70;99.90
15535;DHT22;7869;49.264;8.596;2023-02-11T02:59:11;0.60;99.90
15535;DHT22;7869;49.264;8.596;2023-02-11T03:04:05;0.60;99.90
15535;DHT22;7869;49.264;8.596;2023-02-11T03:09:05;0.70;99.90
15535;DHT22;7869;49.264;8.596;2023-02-11T03:11:31;0.70;99.90
15535;DHT22;7869;49.264;8.596;2023-02-11T03:13:57;0.70;99.90
15535;DHT22;7869;49.264;8.596;2023-02-11T03:16:26;0.80;99.90
15535;DHT22;7869;49.264;8.596;2023-02-11T03:18:56;0.80;99.90
15535;DHT22;7869;49.264;8.596;2023-02-11T03:21:23;0.80;99.90
15535;DHT22;7869;49.264;8.596;2023-02-11T03:23:52;0.90;99.90
15535;DHT22;7869;49.264;8.596;2023-02-11T03:26:37;0.90;99.90
15535;DHT22;7869;49.264;8.596;2023-02-11T03:32:11;0.90;99.90
15535;DHT22;7869;49.264;8.596;2023-02-11T03:34:48;0.90;99.90
15535;DHT22;7869;49.264;8.596;2023-02-11T03:37:19;0.90;99.90
15535;DHT22;7869;49.264;8.596;2023-02-11T03:39:49;0.90;99.90
15535;DHT22;7869;49.264;8.596;2023-02-11T03:42:15;0.90;99.90
15535;DHT22;7869;49.264;8.596;2023-02-11T03:44:44;0.80;99.90
15535;DHT22;7869;49.264;8.596;2023-02-11T03:47:10;0.80;99.90
15535;DHT22;7869;49.264;8.596;2023-02-11T03:49:37;0.80;99.90
15535;DHT22;7869;49.264;8.596;2023-02-11T03:52:04;0.80;99.90
15535;DHT22;7869;49.264;8.596;2023-02-11T03:54:30;0.80;99.90
15535;DHT22;7869;49.264;8.596;2023-02-11T03:56:57;0.80;99.90
15535;DHT22;7869;49.264;8.596;2023-02-11T03:59:23;0.80;99.90
15535;DHT22;7869;49.264;8.596;2023-02-11T04:01:49;0.90;99.90
15535;DHT22;7869;49.264;8.596;2023-02-11T04:04:14;0.90;99.90
15535;DHT22;7869;49.264;8.596;2023-02-11T04:06:40;0.90;99.90
15535;DHT22;7869;49.264;8.596;2023-02-11T04:09:05;0.90;99.90
15535;DHT22;7869;49.264;8.596;2023-02-11T04:11:30;0.90;99.90
15535;DHT22;7869;49.264;8.596;2023-02-11T04:13:56;0.90;99.90
15535;DHT22;7869;49.264;8.596;2023-02-11T04:16:21;0.90;99.90
15535;DHT22;7869;49.264;8.596;2023-02-11T04:18:47;1.00;99.90
15535;DHT22;7869;49.264;8.596;2023-02-11T04:21:12;1.00;99.90
15535;DHT22;7869;49.264;8.596;2023-02-11T04:23:38;1.00;99.90
15535;DHT22;7869;49.264;8.596;2023-02-11T04:26:03;0.90;99.90
15535;DHT22;7869;49.264;8.596;2023-02-11T04:28:29;0.90;99.90
15535;DHT22;7869;49.264;8.596;2023-02-11T04:30:55;0.90;99.90
15535;DHT22;7869;49.264;8.596;2023-02-11T04:33:21;0.90;99.90
15535;DHT22;7869;49.264;8.596;2023-02-11T04:35:46;1.00;99.90
15535;DHT22;7869;49.264;8.596;2023-02-11T04:38:12;1.00;99.90
15535;DHT22;7869;49.264;8.596;2023-02-11T04:40:38;1.00;99.90
15535;DHT22;7869;49.264;8.596;2023-02-11T04:43:03;1.00;99.90
15535;DHT22;7869;49.264;8.596;2023-02-11T04:45:29;1.00;99.90
15535;DHT22;7869;49.264;8.596;2023-02-11T04:47:54;1.10;99.90
15535;DHT22;7869;49.264;8.596;2023-02-11T04:50:20;1.10;99.90
15535;DHT22;7869;49.264;8.596;2023-02-11T04:52:45;1.10;99.90
15535;DHT22;7869;49.264;8.596;2023-02-11T04:55:11;1.10;99.90
15535;DHT22;7869;49.264;8.596;2023-02-11T04:57:36;1.10;99.90
15535;DHT22;7869;49.264;8.596;2023-02-11T05:00:02;1.10;99.90
15535;DHT22;7869;49.264;8.596;2023-02-11T05:02:28;1.10;99.90
15535;DHT22;7869;49.264;8.596;2023-02-11T05:04:53;1.10;99.90
15535;DHT22;7869;49.264;8.596;2023-02-11T05:07:19;1.20;99.90
15535;DHT22;7869;49.264;8.596;2023-02-11T05:09:44;1.20;99.90
15535;DHT22;7869;49.264;8.596;2023-02-11T05:12:10;1.20;99.90
15535;DHT22;7869;49.264;8.596;2023-02-11T05:14:35;1.20;99.90
15535;DHT22;7869;49.264;8.596;2023-02-11T05:17:01;1.10;99.90
15535;DHT22;7869;49.264;8.596;2023-02-11T05:19:26;1.10;99.90
15535;DHT22;7869;49.264;8.596;2023-02-11T05:21:52;1.10;99.90
15535;DHT22;7869;49.264;8.596;2023-02-11T05:24:17;1.10;99.90
15535;DHT22;7869;49.264;8.596;2023-02-11T05:26:43;1.00;99.90
15535;DHT22;7869;49.264;8.596;2023-02-11T05:29:08;1.00;99.90
15535;DHT22;7869;49.264;8.596;2023-02-11T05:31:34;0.90;99.90
15535;DHT22;7869;49.264;8.596;2023-02-11T05:33:59;0.90;99.90
15535;DHT22;7869;49.264;8.596;2023-02-11T05:36:28;0.80;99.90
15535;DHT22;7869;49.264;8.596;2023-02-11T05:38:53;0.70;99.90
15535;DHT22;7869;49.264;8.596;2023-02-11T05:41:19;0.70;99.90
15535;DHT22;7869;49.264;8.596;2023-02-11T05:43:46;0.60;99.90
15535;DHT22;7869;49.264;8.596;2023-02-11T05:46:11;0.60;99.90
15535;DHT22;7869;49.264;8.596;2023-02-11T05:48:37;0.50;99.90
15535;DHT22;7869;49.264;8.596;2023-02-11T05:51:02;0.40;99.90
15535;DHT22;7869;49.264;8.596;2023-02-11T05:53:28;0.30;99.90
15535;DHT22;7869;49.264;8.596;2023-02-11T05:55:53;0.20;99.90
15535;DHT22;7869;49.264;8.596;2023-02-11T05:58:19;0.10;99.90
15535;DHT22;7869;49.264;8.596;2023-02-11T06:00:45;0.10;99.90
15535;DHT22;7869;49.264;8.596;2023-02-11T06:03:11;0.10;99.90
15535;DHT22;7869;49.264;8.596;2023-02-11T06:05:36;0.00;99.90
15535;DHT22;7869;49.264;8.596;2023-02-11T06:08:02;0.00;99.90
15535;DHT22;7869;49.264;8.596;2023-02-11T06:10:27;0.00;99.90
15535;DHT22;7869;49.264;8.596;2023-02-11T06:12:53;0.00;99.90
15535;DHT22;7869;49.264;8.596;2023-02-11T06:15:18;-0.10;99.90
15535;DHT22;7869;49.264;8.596;2023-02-11T06:17:43;-0.10;99.90
15535;DHT22;7869;49.264;8.596;2023-02-11T06:20:09;-0.10;99.90
15535;DHT22;7869;49.264;8.596;2023-02-11T06:22:35;0.00;99.90
15535;DHT22;7869;49.264;8.596;2023-02-11T06:25:00;0.00;99.90
15535;DHT22;7869;49.264;8.596;2023-02-11T06:27:26;0.00;99.90
15535;DHT22;7869;49.264;8.596;2023-02-11T06:29:51;0.10;99.90
15535;DHT22;7869;49.264;8.596;2023-02-11T06:32:17;0.10;99.90
15535;DHT22;7869;49.264;8.596;2023-02-11T06:34:43;0.20;99.90
15535;DHT22;7869;49.264;8.596;2023-02-11T06:37:08;0.20;99.90
15535;DHT22;7869;49.264;8.596;2023-02-11T06:39:35;0.30;99.90
15535;DHT22;7869;49.264;8.596;2023-02-11T06:42:01;0.30;99.90
15535;DHT22;7869;49.264;8.596;2023-02-11T06:44:26;0.40;99.90
15535;DHT22;7869;49.264;8.596;2023-02-11T06:46:52;0.40;99.90
15535;DHT22;7869;49.264;8.596;2023-02-11T06:49:17;0.60;99.90
15535;DHT22;7869;49.264;8.596;2023-02-11T06:51:42;0.50;99.90
15535;DHT22;7869;49.264;8.596;2023-02-11T06:54:09;0.60;99.90
15535;DHT22;7869;49.264;8.596;2023-02-11T06:56:37;0.60;99.90
15535;DHT22;7869;49.264;8.596;2023-02-11T06:59:03;0.70;99.90
15535;DHT22;7869;49.264;8.596;2023-02-11T07:01:28;0.70;99.90
15535;DHT22;7869;49.264;8.596;2023-02-11T07:03:54;0.70;99.90
15535;DHT22;7869;49.264;8.596;2023-02-11T07:06:20;0.70;99.90
15535;DHT22;7869;49.264;8.596;2023-02-11T07:08:46;0.80;99.90
15535;DHT22;7869;49.264;8.596;2023-02-11T07:11:13;0.80;99.90
15535;DHT22;7869;49.264;8.596;2023-02-11T07:13:39;0.80;99.90
15535;DHT22;7869;49.264;8.596;2023-02-11T07:16:06;0.80;99.90
15535;DHT22;7869;49.264;8.596;2023-02-11T07:18:31;0.80;99.90
15535;DHT22;7869;49.264;8.596;2023-02-11T07:20:57;0.80;99.90
15535;DHT22;7869;49.264;8.596;2023-02-11T07:23:22;0.90;99.90
15535;DHT22;7869;49.264;8.596;2023-02-11T07:25:48;0.90;99.90
15535;DHT22;7869;49.264;8.596;2023-02-11T07:28:13;1.00;99.90
15535;DHT22;7869;49.264;8.596;2023-02-11T07:30:39;1.00;99.90
15535;DHT22;7869;49.264;8.596;2023-02-11T07:33:04;1.10;99.90
15535;DHT22;7869;49.264;8.596;2023-02-11T07:35:30;1.10;99.90
15535;DHT22;7869;49.264;8.596;2023-02-11T07:37:55;1.10;99.90
15535;DHT22;7869;49.264;8.596;2023-02-11T07:40:21;1.10;99.90
15535;DHT22;7869;49.264;8.596;2023-02-11T07:42:46;1.10;99.90
15535;DHT22;7869;49.264;8.596;2023-02-11T07:45:12;1.20;99.90
15535;DHT22;7869;49.264;8.596;2023-02-11T07:47:38;1.20;99.90
15535;DHT22;7869;49.264;8.596;2023-02-11T07:50:03;1.20;99.90
15535;DHT22;7869;49.264;8.596;2023-02-11T07:52:29;1.20;99.90
15535;DHT22;7869;49.264;8.596;2023-02-11T07:54:55;1.30;99.90
15535;DHT22;7869;49.264;8.596;2023-02-11T07:57:20;1.40;99.90
15535;DHT22;7869;49.264;8.596;2023-02-11T07:59:46;1.40;99.90
15535;DHT22;7869;49.264;8.596;2023-02-11T08:02:11;1.50;99.90
15535;DHT22;7869;49.264;8.596;2023-02-11T08:04:37;1.40;99.90
15535;DHT22;7869;49.264;8.596;2023-02-11T08:07:02;1.40;99.90
15535;DHT22;7869;49.264;8.596;2023-02-11T08:09:29;1.40;99.90
15535;DHT22;7869;49.264;8.596;2023-02-11T08:11:54;1.50;99.90
15535;DHT22;7869;49.264;8.596;2023-02-11T08:14:20;1.50;99.90
15535;DHT22;7869;49.264;8.596;2023-02-11T08:16:45;1.60;99.90
15535;DHT22;7869;49.264;8.596;2023-02-11T08:19:12;1.60;99.90
15535;DHT22;7869;49.264;8.596;2023-02-11T08:21:38;1.60;99.90
15535;DHT22;7869;49.264;8.596;2023-02-11T08:24:04;1.80;99.90
15535;DHT22;7869;49.264;8.596;2023-02-11T08:26:30;1.80;99.90
15535;DHT22;7869;49.264;8.596;2023-02-11T08:29:04;1.80;99.90
15535;DHT22;7869;49.264;8.596;2023-02-11T08:31:34;1.90;99.90
15535;DHT22;7869;49.264;8.596;2023-02-11T08:33:59;1.90;99.90
15535;DHT22;7869;49.264;8.596;2023-02-11T08:36:30;2.00;99.90
15535;DHT22;7869;49.264;8.596;2023-02-11T08:38:57;2.10;99.90
15535;DHT22;7869;49.264;8.596;2023-02-11T08:41:24;2.20;99.90
15535;DHT22;7869;49.264;8.596;2023-02-11T08:43:49;2.40;99.90
15535;DHT22;7869;49.264;8.596;2023-02-11T08:46:16;2.40;99.90
15535;DHT22;7869;49.264;8.596;2023-02-11T08:48:42;2.40;99.90
15535;DHT22;7869;49.264;8.596;2023-02-11T08:51:09;2.50;99.90
15535;DHT22;7869;49.264;8.596;2023-02-11T08:53:34;2.60;99.90
15535;DHT22;7869;49.264;8.596;2023-02-11T08:56:00;2.60;99.90
15535;DHT22;7869;49.264;8.596;2023-02-11T08:58:26;2.60;99.90
15535;DHT22;7869;49.264;8.596;2023-02-11T09:00:51;2.70;99.90
15535;DHT22;7869;49.264;8.596;2023-02-11T09:03:17;2.80;99.90
15535;DHT22;7869;49.264;8.596;2023-02-11T09:05:43;2.90;99.90
15535;DHT22;7869;49.264;8.596;2023-02-11T09:08:08;3.10;99.90
15535;DHT22;7869;49.264;8.596;2023-02-11T09:10:34;3.20;99.90
15535;DHT22;7869;49.264;8.596;2023-02-11T09:13:00;3.40;99.90
15535;DHT22;7869;49.264;8.596;2023-02-11T09:15:25;3.50;99.90
15535;DHT22;7869;49.264;8.596;2023-02-11T09:17:50;3.70;99.90
15535;DHT22;7869;49.264;8.596;2023-02-11T09:20:16;3.80;99.90
15535;DHT22;7869;49.264;8.596;2023-02-11T09:22:42;3.90;99.90
15535;DHT22;7869;49.264;8.596;2023-02-11T09:25:07;3.90;99.90
15535;DHT22;7869;49.264;8.596;2023-02-11T09:27:33;3.90;99.90
15535;DHT22;7869;49.264;8.596;2023-02-11T09:29:58;3.90;99.90
15535;DHT22;7869;49.264;8.596;2023-02-11T09:32:24;4.00;99.90
15535;DHT22;7869;49.264;8.596;2023-02-11T09:34:49;4.10;99.90
15535;DHT22;7869;49.264;8.596;2023-02-11T09:37:15;4.30;99.90
15535;DHT22;7869;49.264;8.596;2023-02-11T09:39:40;4.10;99.90
15535;DHT22;7869;49.264;8.596;2023-02-11T09:44:34;4.60;99.90
15535;DHT22;7869;49.264;8.596;2023-02-11T09:47:04;4.70;99.90
15535;DHT22;7869;49.264;8.596;2023-02-11T09:49:34;4.80;99.90
15535;DHT22;7869;49.264;8.596;2023-02-11T09:52:04;5.00;99.90
15535;DHT22;7869;49.264;8.596;2023-02-11T09:54:40;5.20;99.90
15535;DHT22;7869;49.264;8.596;2023-02-11T09:57:10;5.40;99.90
15535;DHT22;7869;49.264;8.596;2023-02-11T09:59:36;5.50;99.90
15535;DHT22;7869;49.264;8.596;2023-02-11T10:02:05;5.40;99.90
15535;DHT22;7869;49.264;8.596;2023-02-11T10:07:17;5.70;99.90
15535;DHT22;7869;49.264;8.596;2023-02-11T10:17:17;6.50;99.90
15535;DHT22;7869;49.264;8.596;2023-02-11T10:19:50;6.70;99.90
15535;DHT22;7869;49.264;8.596;2023-02-11T10:22:30;6.80;99.90
15535;DHT22;7869;49.264;8.596;2023-02-11T10:24:58;6.90;99.90
15535;DHT22;7869;49.264;8.596;2023-02-11T10:27:30;6.90;99.90
15535;DHT22;7869;49.264;8.596;2023-02-11T10:29:57;7.00;99.90
15535;DHT22;7869;49.264;8.596;2023-02-11T10:34:59;7.20;99.90
15535;DHT22;7869;49.264;8.596;2023-02-11T10:37:26;7.20;99.90
15535;DHT22;7869;49.264;8.596;2023-02-11T10:39:51;7.30;99.90
15535;DHT22;7869;49.264;8.596;2023-02-11T10:42:17;7.60;99.90
15535;DHT22;7869;49.264;8.596;2023-02-11T10:44:48;7.60;99.90
15535;DHT22;7869;49.264;8.596;2023-02-11T10:47:24;7.80;99.90
15535;DHT22;7869;49.264;8.596;2023-02-11T10:49:50;7.90;99.90
15535;DHT22;7869;49.264;8.596;2023-02-11T10:52:26;7.90;99.90
15535;DHT22;7869;49.264;8.596;2023-02-11T10:57:33;8.00;99.90
15535;DHT22;7869;49.264;8.596;2023-02-11T11:00:02;8.10;99.90
15535;DHT22;7869;49.264;8.596;2023-02-11T11:02:37;8.10;99.90
15535;DHT22;7869;49.264;8.596;2023-02-11T11:05:14;8.10;99.90
15535;DHT22;7869;49.264;8.596;2023-02-11T11:07:41;8.20;99.90
15535;DHT22;7869;49.264;8.596;2023-02-11T11:12:53;8.20;99.90
15535;DHT22;7869;49.264;8.596;2023-02-11T11:15:22;8.30;99.90
15535;DHT22;7869;49.264;8.596;2023-02-11T11:17:48;8.40;99.90
15535;DHT22;7869;49.264;8.596;2023-02-11T11:20:25;8.50;99.90
15535;DHT22;7869;49.264;8.596;2023-02-11T11:22:53;8.50;99.90
15535;DHT22;7869;49.264;8.596;2023-02-11T11:25:20;8.50;99.90
15535;DHT22;7869;49.264;8.596;2023-02-11T11:27:52;8.50;99.90
15535;DHT22;7869;49.264;8.596;2023-02-11T11:30:19;8.60;99.90
15535;DHT22;7869;49.264;8.596;2023-02-11T11:32:44;8.70;99.90
15535;DHT22;7869;49.264;8.596;2023-02-11T11:35:20;8.70;99.90
15535;DHT22;7869;49.264;8.596;2023-02-11T11:37:51;8.60;99.90
15535;DHT22;7869;49.264;8.596;2023-02-11T11:40:21;8.70;99.90
15535;DHT22;7869;49.264;8.596;2023-02-11T11:43:00;8.70;99.90
15535;DHT22;7869;49.264;8.596;2023-02-11T11:45:26;8.80;99.90
15535;DHT22;7869;49.264;8.596;2023-02-11T11:50:36;9.00;99.90
15535;DHT22;7869;49.264;8.596;2023-02-11T11:57:57;8.70;99.90
15535;DHT22;7869;49.264;8.596;2023-02-11T12:00:25;8.60;99.90
15535;DHT22;7869;49.264;8.596;2023-02-11T12:08:42;8.60;99.90
15535;DHT22;7869;49.264;8.596;2023-02-11T12:11:14;8.70;99.90
15535;DHT22;7869;49.264;8.596;2023-02-11T12:13:47;8.70;99.90
15535;DHT22;7869;49.264;8.596;2023-02-11T12:18:47;8.60;99.90
15535;DHT22;7869;49.264;8.596;2023-02-11T12:21:25;8.70;99.90
15535;DHT22;7869;49.264;8.596;2023-02-11T12:23:57;8.70;99.90
15535;DHT22;7869;49.264;8.596;2023-02-11T12:26:35;8.90;99.90
15535;DHT22;7869;49.264;8.596;2023-02-11T12:31:52;9.20;99.90
15535;DHT22;7869;49.264;8.596;2023-02-11T12:34:23;9.40;99.90
15535;DHT22;7869;49.264;8.596;2023-02-11T12:37:01;9.60;99.90
15535;DHT22;7869;49.264;8.596;2023-02-11T12:39:31;10.00;99.90
15535;DHT22;7869;49.264;8.596;2023-02-11T12:42:02;10.20;99.90
15535;DHT22;7869;49.264;8.596;2023-02-11T12:45:04;10.20;99.90
15535;DHT22;7869;49.264;8.596;2023-02-11T12:47:42;10.30;99.90
15535;DHT22;7869;49.264;8.596;2023-02-11T12:53:00;10.30;99.90
15535;DHT22;7869;49.264;8.596;2023-02-11T12:55:29;10.30;99.90
15535;DHT22;7869;49.264;8.596;2023-02-11T12:58:01;10.40;99.90
15535;DHT22;7869;49.264;8.596;2023-02-11T13:07:52;10.10;99.90
15535;DHT22;7869;49.264;8.596;2023-02-11T13:10:27;10.20;99.90
15535;DHT22;7869;49.264;8.596;2023-02-11T13:12:54;10.10;99.90
15535;DHT22;7869;49.264;8.596;2023-02-11T13:15:40;10.20;99.90
15535;DHT22;7869;49.264;8.596;2023-02-11T13:20:49;10.40;99.90
15535;DHT22;7869;49.264;8.596;2023-02-11T13:31:04;10.40;99.90
15535;DHT22;7869;49.264;8.596;2023-02-11T13:33:32;10.30;99.90
15535;DHT22;7869;49.264;8.596;2023-02-11T13:38:25;10.40;99.90
15535;DHT22;7869;49.264;8.596;2023-02-11T13:43:29;10.50;99.90
15535;DHT22;7869;49.264;8.596;2023-02-11T13:46:13;10.50;99.90
15535;DHT22;7869;49.264;8.596;2023-02-11T13:51:11;10.40;99.90
15535;DHT22;7869;49.264;8.596;2023-02-11T13:53:50;10.10;99.90
15535;DHT22;7869;49.264;8.596;2023-02-11T13:56:27;10.00;99.90
15535;DHT22;7869;49.264;8.596;2023-02-11T13:58:53;10.00;99.90
15535;DHT22;7869;49.264;8.596;2023-02-11T14:01:38;9.70;99.90
15535;DHT22;7869;49.264;8.596;2023-02-11T14:04:12;9.80;99.90
15535;DHT22;7869;49.264;8.596;2023-02-11T14:07:20;9.70;99.90
15535;DHT22;7869;49.264;8.596;2023-02-11T14:13:03;10.00;99.90
15535;DHT22;7869;49.264;8.596;2023-02-11T14:15:35;10.30;99.90
15535;DHT22;7869;49.264;8.596;2023-02-11T14:18:18;10.30;99.90
15535;DHT22;7869;49.264;8.596;2023-02-11T14:20:47;10.30;99.90
15535;DHT22;7869;49.264;8.596;2023-02-11T14:23:20;10.20;99.90
15535;DHT22;7869;49.264;8.596;2023-02-11T14:25:50;10.00;99.90
15535;DHT22;7869;49.264;8.596;2023-02-11T14:28:21;10.00;99.90
15535;DHT22;7869;49.264;8.596;2023-02-11T14:30:55;9.90;99.90
15535;DHT22;7869;49.264;8.596;2023-02-11T14:38:42;9.60;99.90
15535;DHT22;7869;49.264;8.596;2023-02-11T14:41:23;9.50;99.90
15535;DHT22;7869;49.264;8.596;2023-02-11T14:43:51;9.30;99.90
15535;DHT22;7869;49.264;8.596;2023-02-11T14:46:18;9.20;99.90
15535;DHT22;7869;49.264;8.596;2023-02-11T14:48:45;9.00;99.90
15535;DHT22;7869;49.264;8.596;2023-02-11T14:51:23;8.90;99.90
15535;DHT22;7869;49.264;8.596;2023-02-11T14:53:54;8.90;99.90
15535;DHT22;7869;49.264;8.596;2023-02-11T14:56:23;8.70;99.90
15535;DHT22;7869;49.264;8.596;2023-02-11T14:58:50;8.80;99.90
15535;DHT22;7869;49.264;8.596;2023-02-11T15:01:27;8.70;99.90
15535;DHT22;7869;49.264;8.596;2023-02-11T15:03:54;8.60;99.90
15535;DHT22;7869;49.264;8.596;2023-02-11T15:08:54;8.50;99.90
15535;DHT22;7869;49.264;8.596;2023-02-11T15:11:22;8.40;99.90
15535;DHT22;7869;49.264;8.596;2023-02-11T15:13:49;8.30;99.90
15535;DHT22;7869;49.264;8.596;2023-02-11T15:16:16;8.20;99.90
15535;DHT22;7869;49.264;8.596;2023-02-11T15:18:50;8.30;99.90
15535;DHT22;7869;49.264;8.596;2023-02-11T15:21:21;8.30;99.90
15535;DHT22;7869;49.264;8.596;2023-02-11T15:23:57;8.30;99.90
15535;DHT22;7869;49.264;8.596;2023-02-11T15:26:22;8.30;99.90
15535;DHT22;7869;49.264;8.596;2023-02-11T15:28:48;8.30;99.90
15535;DHT22;7869;49.264;8.596;2023-02-11T15:31:17;8.10;99.90
15535;DHT22;7869;49.264;8.596;2023-02-11T15:33:43;8.10;99.90
15535;DHT22;7869;49.264;8.596;2023-02-11T15:36:09;8.10;99.90
15535;DHT22;7869;49.264;8.596;2023-02-11T15:38:35;8.10;99.90
15535;DHT22;7869;49.264;8.596;2023-02-11T15:41:02;8.10;99.90
15535;DHT22;7869;49.264;8.596;2023-02-11T15:43:47;8.20;99.90
15535;DHT22;7869;49.264;8.596;2023-02-11T15:46:17;8.10;99.90
15535;DHT22;7869;49.264;8.596;2023-02-11T15:48:44;8.10;99.90
15535;DHT22;7869;49.264;8.596;2023-02-11T15:51:20;8.10;99.90
15535;DHT22;7869;49.264;8.596;2023-02-11T15:53:47;8.20;99.90
15535;DHT22;7869;49.264;8.596;2023-02-11T15:58:54;8.10;99.90
15535;DHT22;7869;49.264;8.596;2023-02-11T16:01:29;8.10;99.90
15535;DHT22;7869;49.264;8.596;2023-02-11T16:03:55;8.10;99.90
15535;DHT22;7869;49.264;8.596;2023-02-11T16:06:22;8.10;99.90
15535;DHT22;7869;49.264;8.596;2023-02-11T16:09:02;8.00;99.90
15535;DHT22;7869;49.264;8.596;2023-02-11T16:11:32;8.00;99.90
15535;DHT22;7869;49.264;8.596;2023-02-11T16:13:58;8.00;99.90
15535;DHT22;7869;49.264;8.596;2023-02-11T16:16:28;7.90;99.90
15535;DHT22;7869;49.264;8.596;2023-02-11T16:18:56;7.90;99.90
15535;DHT22;7869;49.264;8.596;2023-02-11T16:21:27;7.90;99.90
15535;DHT22;7869;49.264;8.596;2023-02-11T16:23:56;7.90;99.90
15535;DHT22;7869;49.264;8.596;2023-02-11T16:26:26;7.80;99.90
15535;DHT22;7869;49.264;8.596;2023-02-11T16:29:00;7.80;99.90
15535;DHT22;7869;49.264;8.596;2023-02-11T16:31:35;7.80;99.90
15535;DHT22;7869;49.264;8.596;2023-02-11T16:34:01;7.80;99.90
15535;DHT22;7869;49.264;8.596;2023-02-11T16:36:27;7.70;99.90
15535;DHT22;7869;49.264;8.596;2023-02-11T16:38:52;7.70;99.90
15535;DHT22;7869;49.264;8.596;2023-02-11T16:41:17;7.70;99.90
15535;DHT22;7869;49.264;8.596;2023-02-11T16:43:43;7.60;99.90
15535;DHT22;7869;49.264;8.596;2023-02-11T16:46:10;7.60;99.90
15535;DHT22;7869;49.264;8.596;2023-02-11T16:48:38;7.60;99.90
15535;DHT22;7869;49.264;8.596;2023-02-11T16:51:03;7.60;99.90
15535;DHT22;7869;49.264;8.596;2023-02-11T16:53:29;7.50;99.90
15535;DHT22;7869;49.264;8.596;2023-02-11T16:55:54;7.50;99.90
15535;DHT22;7869;49.264;8.596;2023-02-11T16:58:20;7.50;99.90
15535;DHT22;7869;49.264;8.596;2023-02-11T17:00:45;7.50;99.90
15535;DHT22;7869;49.264;8.596;2023-02-11T17:03:14;7.50;99.90
15535;DHT22;7869;49.264;8.596;2023-02-11T17:05:40;7.40;99.90
15535;DHT22;7869;49.264;8.596;2023-02-11T17:08:06;7.40;99.90
15535;DHT22;7869;49.264;8.596;2023-02-11T17:10:31;7.40;99.90
15535;DHT22;7869;49.264;8.596;2023-02-11T17:12:57;7.40;99.90
15535;DHT22;7869;49.264;8.596;2023-02-11T17:15:22;7.30;99.90
15535;DHT22;7869;49.264;8.596;2023-02-11T17:17:48;7.30;99.90
15535;DHT22;7869;49.264;8.596;2023-02-11T17:20:13;7.20;99.90
15535;DHT22;7869;49.264;8.596;2023-02-11T17:22:39;7.20;99.90
15535;DHT22;7869;49.264;8.596;2023-02-11T17:25:04;7.20;99.90
15535;DHT22;7869;49.264;8.596;2023-02-11T17:27:30;7.20;99.90
15535;DHT22;7869;49.264;8.596;2023-02-11T17:29:56;7.20;99.90
15535;DHT22;7869;49.264;8.596;2023-02-11T17:32:21;7.20;99.90
15535;DHT22;7869;49.264;8.596;2023-02-11T17:34:47;7.20;99.90
15535;DHT22;7869;49.264;8.596;2023-02-11T17:37:12;7.10;99.90
15535;DHT22;7869;49.264;8.596;2023-02-11T17:39:38;7.10;99.90
15535;DHT22;7869;49.264;8.596;2023-02-11T17:42:04;7.10;99.90
15535;DHT22;7869;49.264;8.596;2023-02-11T17:44:30;7.10;99.90
15535;DHT22;7869;49.264;8.596;2023-02-11T17:46:56;7.00;99.90
15535;DHT22;7869;49.264;8.596;2023-02-11T17:49:21;7.00;99.90
15535;DHT22;7869;49.264;8.596;2023-02-11T17:51:47;7.00;99.90
15535;DHT22;7869;49.264;8.596;2023-02-11T17:54:13;7.00;99.90
15535;DHT22;7869;49.264;8.596;2023-02-11T17:56:40;7.00;99.90